sensor_id;sensor_type;location;lat;lon;timestamp;temperature;humidity
44461;DHT22;30162;53.642;10.640;2022-07-12T00:01:00;18.10;92.30
44461;DHT22;30162;53.642;10.640;2022-07-12T00:03:26;18.10;92.60
44461;DHT22;30162;53.642;10.640;2022-07-12T00:05:52;18.10;92.50
44461;DHT22;30162;53.642;10.640;2022-07-12T00:08:17;18.10;92.40
44461;DHT22;30162;53.642;10.640;2022-07-12T00:10:43;18.20;92.40
44461;DHT22;30162;53.642;10.640;2022-07-12T00:13:09;18.20;92.40
44461;DHT22;30162;53.642;10.640;2022-07-12T00:15:36;18.30;92.20
44461;DHT22;30162;53.642;10.640;2022-07-12T00:18:01;18.30;92.00
44461;DHT22;30162;53.642;10.640;2022-07-12T00:20:27;18.20;92.10
44461;DHT22;30162;53.642;10.640;2022-07-12T00:22:54;18.10;92.30
44461;DHT22;30162;53.642;10.640;2022-07-12T00:25:20;18.00;92.50
44461;DHT22;30162;53.642;10.640;2022-07-12T00:27:46;18.00;92.70
44461;DHT22;30162;53.642;10.640;2022-07-12T00:30:11;18.10;92.40
44461;DHT22;30162;53.642;10.640;2022-07-12T00:32:37;18.20;92.30
44461;DHT22;30162;53.642;10.640;2022-07-12T00:35:03;18.20;91.90
44461;DHT22;30162;53.642;10.640;2022-07-12T00:37:29;18.10;92.10
44461;DHT22;30162;53.642;10.640;2022-07-12T00:39:55;18.10;92.40
44461;DHT22;30162;53.642;10.640;2022-07-12T00:42:20;17.80;92.20
44461;DHT22;30162;53.642;10.640;2022-07-12T00:44:46;17.70;92.50
44461;DHT22;30162;53.642;10.640;2022-07-12T00:47:44;17.70;92.80
44461;DHT22;30162;53.642;10.640;2022-07-12T00:50:16;17.60;92.70
44461;DHT22;30162;53.642;10.640;2022-07-12T00:52:43;17.60;92.90
44461;DHT22;30162;53.642;10.640;2022-07-12T00:55:10;17.50;93.00
44461;DHT22;30162;53.642;10.640;2022-07-12T00:57:37;17.40;93.20
44461;DHT22;30162;53.642;10.640;2022-07-12T01:00:05;17.50;92.90
44461;DHT22;30162;53.642;10.640;2022-07-12T01:02:32;17.40;92.90
44461;DHT22;30162;53.642;10.640;2022-07-12T01:04:58;17.40;92.90
44461;DHT22;30162;53.642;10.640;2022-07-12T01:07:26;17.40;93.00
44461;DHT22;30162;53.642;10.640;2022-07-12T01:09:53;17.30;93.30
44461;DHT22;30162;53.642;10.640;2022-07-12T01:12:20;17.40;93.30
44461;DHT22;30162;53.642;10.640;2022-07-12T01:14:47;17.50;93.30
44461;DHT22;30162;53.642;10.640;2022-07-12T01:17:14;17.40;93.20
44461;DHT22;30162;53.642;10.640;2022-07-12T01:19:40;17.50;93.20
44461;DHT22;30162;53.642;10.640;2022-07-12T01:22:09;17.60;93.10
44461;DHT22;30162;53.642;10.640;2022-07-12T01:24:36;17.70;93.10
44461;DHT22;30162;53.642;10.640;2022-07-12T01:27:03;17.70;92.90
44461;DHT22;30162;53.642;10.640;2022-07-12T01:29:30;17.70;93.00
44461;DHT22;30162;53.642;10.640;2022-07-12T01:31:56;17.80;93.00
44461;DHT22;30162;53.642;10.640;2022-07-12T01:34:42;17.70;93.00
44461;DHT22;30162;53.642;10.640;2022-07-12T01:37:09;17.70;93.00
44461;DHT22;30162;53.642;10.640;2022-07-12T01:39:36;17.60;92.90
44461;DHT22;30162;53.642;10.640;2022-07-12T01:42:02;17.60;93.20
44461;DHT22;30162;53.642;10.640;2022-07-12T01:44:28;17.60;93.20
44461;DHT22;30162;53.642;10.640;2022-07-12T01:46:53;17.60;93.10
44461;DHT22;30162;53.642;10.640;2022-07-12T01:49:19;17.70;93.20
44461;DHT22;30162;53.642;10.640;2022-07-12T01:51:45;17.60;93.10
44461;DHT22;30162;53.642;10.640;2022-07-12T01:54:10;17.60;93.10
44461;DHT22;30162;53.642;10.640;2022-07-12T01:56:36;17.60;93.10
44461;DHT22;30162;53.642;10.640;2022-07-12T01:59:01;17.70;93.10
44461;DHT22;30162;53.642;10.640;2022-07-12T02:01:28;17.70;92.70
44461;DHT22;30162;53.642;10.640;2022-07-12T02:03:54;17.60;92.90
44461;DHT22;30162;53.642;10.640;2022-07-12T02:06:19;17.50;93.00
44461;DHT22;30162;53.642;10.640;2022-07-12T02:08:45;17.60;93.00
44461;DHT22;30162;53.642;10.640;2022-07-12T02:11:11;17.50;92.90
44461;DHT22;30162;53.642;10.640;2022-07-12T02:13:37;17.50;93.10
44461;DHT22;30162;53.642;10.640;2022-07-12T02:16:04;17.60;93.10
44461;DHT22;30162;53.642;10.640;2022-07-12T02:18:32;17.50;93.00
44461;DHT22;30162;53.642;10.640;2022-07-12T02:20:58;17.60;93.00
44461;DHT22;30162;53.642;10.640;2022-07-12T02:23:23;17.50;93.00
44461;DHT22;30162;53.642;10.640;2022-07-12T02:25:49;17.40;93.10
44461;DHT22;30162;53.642;10.640;2022-07-12T02:28:14;17.40;93.10
44461;DHT22;30162;53.642;10.640;2022-07-12T02:30:40;17.40;93.30
44461;DHT22;30162;53.642;10.640;2022-07-12T02:33:05;17.40;93.40
44461;DHT22;30162;53.642;10.640;2022-07-12T02:35:31;17.30;93.20
44461;DHT22;30162;53.642;10.640;2022-07-12T02:37:56;17.40;93.40
44461;DHT22;30162;53.642;10.640;2022-07-12T02:40:22;17.40;93.30
44461;DHT22;30162;53.642;10.640;2022-07-12T02:43:06;17.30;93.30
44461;DHT22;30162;53.642;10.640;2022-07-12T02:45:32;17.20;93.40
44461;DHT22;30162;53.642;10.640;2022-07-12T02:47:57;17.20;93.50
44461;DHT22;30162;53.642;10.640;2022-07-12T02:50:23;17.30;93.30
44461;DHT22;30162;53.642;10.640;2022-07-12T02:52:48;17.30;93.30
44461;DHT22;30162;53.642;10.640;2022-07-12T02:55:14;17.20;93.20
44461;DHT22;30162;53.642;10.640;2022-07-12T02:57:40;17.10;93.30
44461;DHT22;30162;53.642;10.640;2022-07-12T03:00:06;17.10;93.50
44461;DHT22;30162;53.642;10.640;2022-07-12T03:02:33;17.00;93.20
44461;DHT22;30162;53.642;10.640;2022-07-12T03:04:58;17.00;93.50
44461;DHT22;30162;53.642;10.640;2022-07-12T03:07:24;17.10;93.40
44461;DHT22;30162;53.642;10.640;2022-07-12T03:09:49;17.10;93.30
44461;DHT22;30162;53.642;10.640;2022-07-12T03:12:15;17.00;93.60
44461;DHT22;30162;53.642;10.640;2022-07-12T03:14:40;17.00;93.60
44461;DHT22;30162;53.642;10.640;2022-07-12T03:17:06;17.00;93.90
44461;DHT22;30162;53.642;10.640;2022-07-12T03:19:32;17.00;93.90
44461;DHT22;30162;53.642;10.640;2022-07-12T03:21:57;17.10;93.80
44461;DHT22;30162;53.642;10.640;2022-07-12T03:24:23;17.20;93.70
44461;DHT22;30162;53.642;10.640;2022-07-12T03:26:48;17.10;93.60
44461;DHT22;30162;53.642;10.640;2022-07-12T03:29:14;17.00;94.00
44461;DHT22;30162;53.642;10.640;2022-07-12T03:31:40;17.20;94.00
44461;DHT22;30162;53.642;10.640;2022-07-12T03:34:06;17.30;93.70
44461;DHT22;30162;53.642;10.640;2022-07-12T03:36:32;17.50;93.60
44461;DHT22;30162;53.642;10.640;2022-07-12T03:38:57;17.50;93.40
44461;DHT22;30162;53.642;10.640;2022-07-12T03:41:23;17.60;93.50
44461;DHT22;30162;53.642;10.640;2022-07-12T03:43:49;17.20;93.90
44461;DHT22;30162;53.642;10.640;2022-07-12T03:46:15;17.40;94.00
44461;DHT22;30162;53.642;10.640;2022-07-12T03:48:40;17.50;93.80
44461;DHT22;30162;53.642;10.640;2022-07-12T03:51:06;17.60;93.80
44461;DHT22;30162;53.642;10.640;2022-07-12T03:53:31;17.50;93.70
44461;DHT22;30162;53.642;10.640;2022-07-12T03:55:57;17.60;93.50
44461;DHT22;30162;53.642;10.640;2022-07-12T03:58:23;17.70;93.60
44461;DHT22;30162;53.642;10.640;2022-07-12T04:00:48;17.80;93.40
44461;DHT22;30162;53.642;10.640;2022-07-12T04:03:14;17.90;93.30
44461;DHT22;30162;53.642;10.640;2022-07-12T04:05:39;17.90;93.20
44461;DHT22;30162;53.642;10.640;2022-07-12T04:08:05;18.10;92.80
44461;DHT22;30162;53.642;10.640;2022-07-12T04:10:31;18.00;92.70
44461;DHT22;30162;53.642;10.640;2022-07-12T04:12:57;18.00;92.90
44461;DHT22;30162;53.642;10.640;2022-07-12T04:15:23;18.10;92.70
44461;DHT22;30162;53.642;10.640;2022-07-12T04:17:48;18.20;92.40
44461;DHT22;30162;53.642;10.640;2022-07-12T04:20:14;18.20;92.60
44461;DHT22;30162;53.642;10.640;2022-07-12T04:22:40;18.30;92.60
44461;DHT22;30162;53.642;10.640;2022-07-12T04:25:07;18.40;92.50
44461;DHT22;30162;53.642;10.640;2022-07-12T04:27:33;18.60;92.60
44461;DHT22;30162;53.642;10.640;2022-07-12T04:29:59;18.70;92.10
44461;DHT22;30162;53.642;10.640;2022-07-12T04:32:24;19.00;91.90
44461;DHT22;30162;53.642;10.640;2022-07-12T04:34:50;19.10;91.40
44461;DHT22;30162;53.642;10.640;2022-07-12T04:37:15;19.10;91.50
44461;DHT22;30162;53.642;10.640;2022-07-12T04:39:41;19.00;91.50
44461;DHT22;30162;53.642;10.640;2022-07-12T04:42:06;19.10;91.70
44461;DHT22;30162;53.642;10.640;2022-07-12T04:44:32;19.00;91.40
44461;DHT22;30162;53.642;10.640;2022-07-12T04:46:58;19.00;91.70
44461;DHT22;30162;53.642;10.640;2022-07-12T04:49:23;19.20;91.90
44461;DHT22;30162;53.642;10.640;2022-07-12T04:51:49;19.40;91.50
44461;DHT22;30162;53.642;10.640;2022-07-12T04:54:15;19.70;91.10
44461;DHT22;30162;53.642;10.640;2022-07-12T04:56:40;19.70;91.00
44461;DHT22;30162;53.642;10.640;2022-07-12T04:59:06;19.80;90.40
44461;DHT22;30162;53.642;10.640;2022-07-12T05:01:32;19.90;90.70
44461;DHT22;30162;53.642;10.640;2022-07-12T05:03:58;20.00;90.50
44461;DHT22;30162;53.642;10.640;2022-07-12T05:06:23;20.30;90.30
44461;DHT22;30162;53.642;10.640;2022-07-12T05:08:49;20.40;90.00
44461;DHT22;30162;53.642;10.640;2022-07-12T05:11:15;20.70;89.70
44461;DHT22;30162;53.642;10.640;2022-07-12T05:13:40;20.90;89.00
44461;DHT22;30162;53.642;10.640;2022-07-12T05:16:07;20.80;89.80
44461;DHT22;30162;53.642;10.640;2022-07-12T05:18:33;20.80;88.20
44461;DHT22;30162;53.642;10.640;2022-07-12T05:20:59;20.90;89.60
44461;DHT22;30162;53.642;10.640;2022-07-12T05:23:25;21.20;89.40
44461;DHT22;30162;53.642;10.640;2022-07-12T05:25:50;21.50;88.30
44461;DHT22;30162;53.642;10.640;2022-07-12T05:28:16;21.60;86.40
44461;DHT22;30162;53.642;10.640;2022-07-12T05:30:42;21.80;87.10
44461;DHT22;30162;53.642;10.640;2022-07-12T05:33:08;22.00;86.70
44461;DHT22;30162;53.642;10.640;2022-07-12T05:35:34;22.00;86.80
44461;DHT22;30162;53.642;10.640;2022-07-12T05:37:59;22.00;87.50
44461;DHT22;30162;53.642;10.640;2022-07-12T05:40:26;22.00;87.00
44461;DHT22;30162;53.642;10.640;2022-07-12T05:42:52;21.80;86.20
44461;DHT22;30162;53.642;10.640;2022-07-12T05:45:17;21.70;87.10
44461;DHT22;30162;53.642;10.640;2022-07-12T05:47:43;21.90;87.20
44461;DHT22;30162;53.642;10.640;2022-07-12T05:50:09;22.00;87.60
44461;DHT22;30162;53.642;10.640;2022-07-12T05:52:34;22.20;87.30
44461;DHT22;30162;53.642;10.640;2022-07-12T05:55:18;22.20;86.50
44461;DHT22;30162;53.642;10.640;2022-07-12T05:57:44;22.30;86.20
44461;DHT22;30162;53.642;10.640;2022-07-12T06:00:10;22.50;85.90
44461;DHT22;30162;53.642;10.640;2022-07-12T06:02:36;22.60;86.50
44461;DHT22;30162;53.642;10.640;2022-07-12T06:05:01;22.70;85.90
44461;DHT22;30162;53.642;10.640;2022-07-12T06:07:27;23.00;84.50
44461;DHT22;30162;53.642;10.640;2022-07-12T06:09:52;22.80;85.50
44461;DHT22;30162;53.642;10.640;2022-07-12T06:12:18;23.00;84.90
44461;DHT22;30162;53.642;10.640;2022-07-12T06:14:44;22.90;84.60
44461;DHT22;30162;53.642;10.640;2022-07-12T06:17:09;23.00;84.90
44461;DHT22;30162;53.642;10.640;2022-07-12T06:19:35;23.00;83.00
44461;DHT22;30162;53.642;10.640;2022-07-12T06:22:00;23.10;83.20
44461;DHT22;30162;53.642;10.640;2022-07-12T06:24:26;22.80;82.30
44461;DHT22;30162;53.642;10.640;2022-07-12T06:26:52;22.80;84.50
44461;DHT22;30162;53.642;10.640;2022-07-12T06:29:17;22.80;84.10
44461;DHT22;30162;53.642;10.640;2022-07-12T06:31:43;23.00;83.70
44461;DHT22;30162;53.642;10.640;2022-07-12T06:34:08;23.40;82.30
44461;DHT22;30162;53.642;10.640;2022-07-12T06:36:34;23.20;83.40
44461;DHT22;30162;53.642;10.640;2022-07-12T06:38:59;23.20;82.70
44461;DHT22;30162;53.642;10.640;2022-07-12T06:41:25;23.10;82.90
44461;DHT22;30162;53.642;10.640;2022-07-12T06:43:51;23.40;82.60
44461;DHT22;30162;53.642;10.640;2022-07-12T06:46:16;23.30;82.60
44461;DHT22;30162;53.642;10.640;2022-07-12T06:48:42;23.60;81.20
44461;DHT22;30162;53.642;10.640;2022-07-12T06:51:07;23.70;80.30
44461;DHT22;30162;53.642;10.640;2022-07-12T06:53:33;23.10;81.60
44461;DHT22;30162;53.642;10.640;2022-07-12T06:55:58;23.10;82.00
44461;DHT22;30162;53.642;10.640;2022-07-12T06:58:24;23.30;82.00
44461;DHT22;30162;53.642;10.640;2022-07-12T07:00:49;23.40;81.50
44461;DHT22;30162;53.642;10.640;2022-07-12T07:03:15;23.50;81.20
44461;DHT22;30162;53.642;10.640;2022-07-12T07:05:40;23.20;81.30
44461;DHT22;30162;53.642;10.640;2022-07-12T07:08:06;23.10;81.80
44461;DHT22;30162;53.642;10.640;2022-07-12T07:10:32;23.60;81.20
44461;DHT22;30162;53.642;10.640;2022-07-12T07:12:58;24.10;80.60
44461;DHT22;30162;53.642;10.640;2022-07-12T07:15:25;24.50;79.40
44461;DHT22;30162;53.642;10.640;2022-07-12T07:17:51;24.10;78.80
44461;DHT22;30162;53.642;10.640;2022-07-12T07:20:17;24.10;78.30
44461;DHT22;30162;53.642;10.640;2022-07-12T07:22:42;24.00;78.70
44461;DHT22;30162;53.642;10.640;2022-07-12T07:25:08;24.50;78.60
44461;DHT22;30162;53.642;10.640;2022-07-12T07:27:34;24.80;77.00
44461;DHT22;30162;53.642;10.640;2022-07-12T07:29:59;24.80;77.00
44461;DHT22;30162;53.642;10.640;2022-07-12T07:32:43;25.00;76.50
44461;DHT22;30162;53.642;10.640;2022-07-12T07:35:10;24.80;76.30
44461;DHT22;30162;53.642;10.640;2022-07-12T07:37:36;25.00;76.40
44461;DHT22;30162;53.642;10.640;2022-07-12T07:40:02;25.00;77.00
44461;DHT22;30162;53.642;10.640;2022-07-12T07:42:28;24.80;77.10
44461;DHT22;30162;53.642;10.640;2022-07-12T07:44:54;24.70;76.60
44461;DHT22;30162;53.642;10.640;2022-07-12T07:47:19;24.80;76.60
44461;DHT22;30162;53.642;10.640;2022-07-12T07:49:45;24.30;76.80
44461;DHT22;30162;53.642;10.640;2022-07-12T07:52:10;24.60;77.40
44461;DHT22;30162;53.642;10.640;2022-07-12T07:54:36;24.20;75.50
44461;DHT22;30162;53.642;10.640;2022-07-12T07:57:01;23.90;77.50
44461;DHT22;30162;53.642;10.640;2022-07-12T07:59:27;24.00;79.10
44461;DHT22;30162;53.642;10.640;2022-07-12T08:01:52;24.40;77.70
44461;DHT22;30162;53.642;10.640;2022-07-12T08:04:19;24.40;75.70
44461;DHT22;30162;53.642;10.640;2022-07-12T08:06:46;24.30;76.60
44461;DHT22;30162;53.642;10.640;2022-07-12T08:09:12;24.10;77.90
44461;DHT22;30162;53.642;10.640;2022-07-12T08:11:38;24.40;76.70
44461;DHT22;30162;53.642;10.640;2022-07-12T08:14:05;24.60;76.00
44461;DHT22;30162;53.642;10.640;2022-07-12T08:16:31;24.60;76.80
44461;DHT22;30162;53.642;10.640;2022-07-12T08:18:58;24.50;76.60
44461;DHT22;30162;53.642;10.640;2022-07-12T08:21:24;24.70;76.10
44461;DHT22;30162;53.642;10.640;2022-07-12T08:23:50;24.90;76.90
44461;DHT22;30162;53.642;10.640;2022-07-12T08:26:15;25.00;75.10
44461;DHT22;30162;53.642;10.640;2022-07-12T08:28:41;24.80;76.90
44461;DHT22;30162;53.642;10.640;2022-07-12T08:31:06;25.10;75.90
44461;DHT22;30162;53.642;10.640;2022-07-12T08:33:32;25.10;75.10
44461;DHT22;30162;53.642;10.640;2022-07-12T08:35:58;25.30;76.20
44461;DHT22;30162;53.642;10.640;2022-07-12T08:38:24;25.70;75.10
44461;DHT22;30162;53.642;10.640;2022-07-12T08:40:49;25.80;74.50
44461;DHT22;30162;53.642;10.640;2022-07-12T08:43:15;26.00;74.70
44461;DHT22;30162;53.642;10.640;2022-07-12T08:45:40;26.40;73.80
44461;DHT22;30162;53.642;10.640;2022-07-12T08:48:06;26.40;72.30
44461;DHT22;30162;53.642;10.640;2022-07-12T08:50:33;26.90;73.60
44461;DHT22;30162;53.642;10.640;2022-07-12T08:52:58;26.80;72.00
44461;DHT22;30162;53.642;10.640;2022-07-12T08:55:34;27.00;72.20
44461;DHT22;30162;53.642;10.640;2022-07-12T08:58:04;27.30;70.60
44461;DHT22;30162;53.642;10.640;2022-07-12T09:00:33;27.50;71.20
44461;DHT22;30162;53.642;10.640;2022-07-12T09:03:00;27.50;71.60
44461;DHT22;30162;53.642;10.640;2022-07-12T09:05:31;27.50;70.00
44461;DHT22;30162;53.642;10.640;2022-07-12T09:08:08;27.10;69.60
44461;DHT22;30162;53.642;10.640;2022-07-12T09:10:35;26.80;71.00
44461;DHT22;30162;53.642;10.640;2022-07-12T09:13:01;26.70;70.30
44461;DHT22;30162;53.642;10.640;2022-07-12T09:15:27;26.20;71.60
44461;DHT22;30162;53.642;10.640;2022-07-12T09:18:01;26.20;72.50
44461;DHT22;30162;53.642;10.640;2022-07-12T09:20:35;26.00;71.60
44461;DHT22;30162;53.642;10.640;2022-07-12T09:25:34;26.10;72.10
44461;DHT22;30162;53.642;10.640;2022-07-12T09:28:07;26.10;72.70
44461;DHT22;30162;53.642;10.640;2022-07-12T09:30:34;26.20;72.00
44461;DHT22;30162;53.642;10.640;2022-07-12T09:33:04;26.20;70.70
44461;DHT22;30162;53.642;10.640;2022-07-12T09:36:01;26.50;71.50
44461;DHT22;30162;53.642;10.640;2022-07-12T09:38:37;26.80;70.30
44461;DHT22;30162;53.642;10.640;2022-07-12T09:41:04;26.60;70.30
44461;DHT22;30162;53.642;10.640;2022-07-12T09:43:30;26.80;71.10
44461;DHT22;30162;53.642;10.640;2022-07-12T09:45:56;26.70;69.80
44461;DHT22;30162;53.642;10.640;2022-07-12T09:48:22;26.40;69.40
44461;DHT22;30162;53.642;10.640;2022-07-12T09:50:51;26.40;71.60
44461;DHT22;30162;53.642;10.640;2022-07-12T09:53:37;26.70;72.40
44461;DHT22;30162;53.642;10.640;2022-07-12T09:56:05;26.80;70.60
44461;DHT22;30162;53.642;10.640;2022-07-12T09:58:36;27.10;69.60
44461;DHT22;30162;53.642;10.640;2022-07-12T10:01:06;27.00;70.40
44461;DHT22;30162;53.642;10.640;2022-07-12T10:03:32;27.40;68.60
44461;DHT22;30162;53.642;10.640;2022-07-12T10:06:01;27.50;68.50
44461;DHT22;30162;53.642;10.640;2022-07-12T10:08:30;27.80;68.30
44461;DHT22;30162;53.642;10.640;2022-07-12T10:10:58;27.60;68.50
44461;DHT22;30162;53.642;10.640;2022-07-12T10:13:25;27.40;68.00
44461;DHT22;30162;53.642;10.640;2022-07-12T10:15:51;27.70;69.50
44461;DHT22;30162;53.642;10.640;2022-07-12T10:18:23;28.10;69.40
44461;DHT22;30162;53.642;10.640;2022-07-12T10:20:49;28.50;67.80
44461;DHT22;30162;53.642;10.640;2022-07-12T10:23:34;28.90;67.40
44461;DHT22;30162;53.642;10.640;2022-07-12T10:26:02;28.80;66.10
44461;DHT22;30162;53.642;10.640;2022-07-12T10:28:59;29.20;66.00
44461;DHT22;30162;53.642;10.640;2022-07-12T10:31:29;29.60;66.20
44461;DHT22;30162;53.642;10.640;2022-07-12T10:39:23;29.60;65.10
44461;DHT22;30162;53.642;10.640;2022-07-12T10:44:41;29.30;64.40
44461;DHT22;30162;53.642;10.640;2022-07-12T10:47:09;29.80;63.50
44461;DHT22;30162;53.642;10.640;2022-07-12T10:49:40;30.30;62.10
44461;DHT22;30162;53.642;10.640;2022-07-12T10:57:02;29.90;62.50
44461;DHT22;30162;53.642;10.640;2022-07-12T10:59:29;29.70;60.80
44461;DHT22;30162;53.642;10.640;2022-07-12T11:01:55;29.70;62.20
44461;DHT22;30162;53.642;10.640;2022-07-12T11:04:21;29.80;62.90
44461;DHT22;30162;53.642;10.640;2022-07-12T11:06:48;30.20;60.40
44461;DHT22;30162;53.642;10.640;2022-07-12T11:09:17;30.20;60.70
44461;DHT22;30162;53.642;10.640;2022-07-12T11:11:48;30.30;59.20
44461;DHT22;30162;53.642;10.640;2022-07-12T11:14:25;29.90;61.60
44461;DHT22;30162;53.642;10.640;2022-07-12T11:16:52;30.00;60.80
44461;DHT22;30162;53.642;10.640;2022-07-12T11:19:22;29.90;60.60
44461;DHT22;30162;53.642;10.640;2022-07-12T11:21:48;30.20;61.00
44461;DHT22;30162;53.642;10.640;2022-07-12T11:24:24;30.40;59.60
44461;DHT22;30162;53.642;10.640;2022-07-12T11:26:51;30.50;60.30
44461;DHT22;30162;53.642;10.640;2022-07-12T11:29:18;30.30;60.30
44461;DHT22;30162;53.642;10.640;2022-07-12T11:31:44;30.60;60.50
44461;DHT22;30162;53.642;10.640;2022-07-12T11:34:24;30.20;59.80
44461;DHT22;30162;53.642;10.640;2022-07-12T11:36:53;30.50;60.30
44461;DHT22;30162;53.642;10.640;2022-07-12T11:39:36;30.70;59.40
44461;DHT22;30162;53.642;10.640;2022-07-12T11:42:03;30.60;60.10
44461;DHT22;30162;53.642;10.640;2022-07-12T11:44:45;30.70;59.50
44461;DHT22;30162;53.642;10.640;2022-07-12T11:47:11;30.80;59.90
44461;DHT22;30162;53.642;10.640;2022-07-12T11:49:45;31.10;60.00
44461;DHT22;30162;53.642;10.640;2022-07-12T11:52:15;31.20;59.70
44461;DHT22;30162;53.642;10.640;2022-07-12T11:54:46;31.60;59.00
44461;DHT22;30162;53.642;10.640;2022-07-12T11:57:12;31.50;59.60
44461;DHT22;30162;53.642;10.640;2022-07-12T11:59:39;31.80;58.70
44461;DHT22;30162;53.642;10.640;2022-07-12T12:02:12;31.70;58.70
44461;DHT22;30162;53.642;10.640;2022-07-12T12:04:50;31.40;58.30
44461;DHT22;30162;53.642;10.640;2022-07-12T12:07:18;31.80;58.40
44461;DHT22;30162;53.642;10.640;2022-07-12T12:10:00;31.30;58.50
44461;DHT22;30162;53.642;10.640;2022-07-12T12:15:04;31.50;59.20
44461;DHT22;30162;53.642;10.640;2022-07-12T12:17:30;31.80;58.50
44461;DHT22;30162;53.642;10.640;2022-07-12T12:19:55;30.90;57.30
44461;DHT22;30162;53.642;10.640;2022-07-12T12:22:34;30.90;59.30
44461;DHT22;30162;53.642;10.640;2022-07-12T12:25:01;31.50;61.10
44461;DHT22;30162;53.642;10.640;2022-07-12T12:27:26;31.60;59.10
44461;DHT22;30162;53.642;10.640;2022-07-12T12:29:52;31.50;59.10
44461;DHT22;30162;53.642;10.640;2022-07-12T12:32:18;31.70;58.30
44461;DHT22;30162;53.642;10.640;2022-07-12T12:35:09;31.90;58.70
44461;DHT22;30162;53.642;10.640;2022-07-12T12:37:34;32.40;58.10
44461;DHT22;30162;53.642;10.640;2022-07-12T12:40:01;32.70;59.90
44461;DHT22;30162;53.642;10.640;2022-07-12T12:42:26;33.00;64.10
44461;DHT22;30162;53.642;10.640;2022-07-12T12:44:52;32.90;69.70
44461;DHT22;30162;53.642;10.640;2022-07-12T12:47:18;32.80;70.70
44461;DHT22;30162;53.642;10.640;2022-07-12T12:49:55;32.60;71.30
44461;DHT22;30162;53.642;10.640;2022-07-12T12:52:23;32.40;69.80
44461;DHT22;30162;53.642;10.640;2022-07-12T12:54:49;32.20;71.10
44461;DHT22;30162;53.642;10.640;2022-07-12T12:57:15;32.50;71.90
44461;DHT22;30162;53.642;10.640;2022-07-12T12:59:40;32.90;71.50
44461;DHT22;30162;53.642;10.640;2022-07-12T13:02:07;33.00;70.20
44461;DHT22;30162;53.642;10.640;2022-07-12T13:04:35;32.40;71.40
44461;DHT22;30162;53.642;10.640;2022-07-12T13:07:01;32.30;71.00
44461;DHT22;30162;53.642;10.640;2022-07-12T13:09:28;32.50;72.50
44461;DHT22;30162;53.642;10.640;2022-07-12T13:11:55;32.90;71.70
44461;DHT22;30162;53.642;10.640;2022-07-12T13:14:20;33.00;72.30
44461;DHT22;30162;53.642;10.640;2022-07-12T13:16:46;32.80;70.70
44461;DHT22;30162;53.642;10.640;2022-07-12T13:19:12;33.00;70.50
44461;DHT22;30162;53.642;10.640;2022-07-12T13:21:37;32.90;72.10
44461;DHT22;30162;53.642;10.640;2022-07-12T13:24:03;32.40;71.00
44461;DHT22;30162;53.642;10.640;2022-07-12T13:26:30;32.60;71.10
44461;DHT22;30162;53.642;10.640;2022-07-12T13:28:56;32.80;71.70
44461;DHT22;30162;53.642;10.640;2022-07-12T13:31:22;32.70;71.10
44461;DHT22;30162;53.642;10.640;2022-07-12T13:33:47;32.60;72.00
44461;DHT22;30162;53.642;10.640;2022-07-12T13:36:13;32.20;70.80
44461;DHT22;30162;53.642;10.640;2022-07-12T13:38:39;32.20;71.50
44461;DHT22;30162;53.642;10.640;2022-07-12T13:41:05;32.40;72.20
44461;DHT22;30162;53.642;10.640;2022-07-12T13:43:31;32.70;70.80
44461;DHT22;30162;53.642;10.640;2022-07-12T13:45:56;32.80;68.70
44461;DHT22;30162;53.642;10.640;2022-07-12T13:48:22;32.40;70.70
44461;DHT22;30162;53.642;10.640;2022-07-12T13:50:48;32.80;69.60
44461;DHT22;30162;53.642;10.640;2022-07-12T13:53:14;32.80;69.50
44461;DHT22;30162;53.642;10.640;2022-07-12T13:55:45;32.90;70.60
44461;DHT22;30162;53.642;10.640;2022-07-12T13:58:11;32.90;70.00
44461;DHT22;30162;53.642;10.640;2022-07-12T14:00:39;33.30;70.60
44461;DHT22;30162;53.642;10.640;2022-07-12T14:03:05;33.60;69.30
44461;DHT22;30162;53.642;10.640;2022-07-12T14:05:31;33.60;69.90
44461;DHT22;30162;53.642;10.640;2022-07-12T14:07:57;33.60;69.60
44461;DHT22;30162;53.642;10.640;2022-07-12T14:10:22;33.60;69.50
44461;DHT22;30162;53.642;10.640;2022-07-12T14:12:48;33.30;68.50
44461;DHT22;30162;53.642;10.640;2022-07-12T14:15:14;33.20;69.00
44461;DHT22;30162;53.642;10.640;2022-07-12T14:17:42;33.50;67.80
44461;DHT22;30162;53.642;10.640;2022-07-12T14:20:09;33.30;67.80
44461;DHT22;30162;53.642;10.640;2022-07-12T14:22:35;33.20;68.70
44461;DHT22;30162;53.642;10.640;2022-07-12T14:25:01;33.10;67.50
44461;DHT22;30162;53.642;10.640;2022-07-12T14:27:30;33.00;66.50
44461;DHT22;30162;53.642;10.640;2022-07-12T14:29:55;32.80;67.20
44461;DHT22;30162;53.642;10.640;2022-07-12T14:32:21;32.40;68.90
44461;DHT22;30162;53.642;10.640;2022-07-12T14:34:46;32.00;69.30
44461;DHT22;30162;53.642;10.640;2022-07-12T14:37:12;31.90;69.80
44461;DHT22;30162;53.642;10.640;2022-07-12T14:39:38;32.20;69.40
44461;DHT22;30162;53.642;10.640;2022-07-12T14:42:03;32.50;69.30
44461;DHT22;30162;53.642;10.640;2022-07-12T14:44:29;32.70;69.10
44461;DHT22;30162;53.642;10.640;2022-07-12T14:46:55;32.60;69.70
44461;DHT22;30162;53.642;10.640;2022-07-12T14:49:21;32.60;69.90
44461;DHT22;30162;53.642;10.640;2022-07-12T14:51:47;32.50;70.00
44461;DHT22;30162;53.642;10.640;2022-07-12T14:54:13;32.30;69.70
44461;DHT22;30162;53.642;10.640;2022-07-12T14:56:39;32.50;70.30
44461;DHT22;30162;53.642;10.640;2022-07-12T14:59:04;32.40;72.10
44461;DHT22;30162;53.642;10.640;2022-07-12T15:01:31;32.20;71.40
44461;DHT22;30162;53.642;10.640;2022-07-12T15:03:57;32.20;71.20
44461;DHT22;30162;53.642;10.640;2022-07-12T15:06:22;32.30;71.50
44461;DHT22;30162;53.642;10.640;2022-07-12T15:08:50;32.20;70.60
44461;DHT22;30162;53.642;10.640;2022-07-12T15:11:16;31.80;70.40
44461;DHT22;30162;53.642;10.640;2022-07-12T15:13:41;31.80;71.30
44461;DHT22;30162;53.642;10.640;2022-07-12T15:16:07;31.90;70.50
44461;DHT22;30162;53.642;10.640;2022-07-12T15:18:32;31.70;71.60
44461;DHT22;30162;53.642;10.640;2022-07-12T15:20:58;31.90;69.40
44461;DHT22;30162;53.642;10.640;2022-07-12T15:23:24;32.00;68.50
44461;DHT22;30162;53.642;10.640;2022-07-12T15:25:51;32.20;70.10
44461;DHT22;30162;53.642;10.640;2022-07-12T15:28:17;32.40;69.10
44461;DHT22;30162;53.642;10.640;2022-07-12T15:30:42;32.20;68.10
44461;DHT22;30162;53.642;10.640;2022-07-12T15:33:08;32.50;68.40